Terminal Aerodrome Forecast
Issued by NWS Brownsville, TX

Home | Current Version | Previous Version | Text Only | Print | Product List | Glossary On
Versions: 1 2 3 4 5 6 7 8 9 10 11 12
669
FTUS44 KBRO 272331
TAFBRO
TAF
KBRO 272331Z 2800/2824 09011KT P6SM FEW040 FEW250
     FM280300 08004KT P6SM FEW250
     FM281300 06005KT P6SM FEW035
     FM281700 09010G17KT P6SM SCT040 SCT250=

USA.gov is the U.S. government's official web portal to all federal, state and local government web resources and services.